Inspiration — C6FM5 — position and weather

sailwx.info

Track history (hours):
 
Tides and Currents Weather Stations Pressure Air Temp Water Temp Dewpoint Dewpoint Depression Visibility Wind Speed Wind Dir Waves Ship Positions

Inspiration

Operator: Carnival Cruise Lines

Last reported at 2019-Oct-16 12:52 UTC. Time now 2019-Oct-16 19:32 UTC.
Position N 31°53' W 116°48'.

Type: Ship. MMSI: 309484000.

Date/timePositionNaut miles runAvg speedWind from/ knotsBaromVisibWave heightAir tempDewpointWater temp
2019-Oct-16 12:52N 31°53' W 116°48'3 8.3
2019-Oct-16 12:30N 31°54' W 116°51'4 7.9
2019-Oct-16 11:59N 31°56' W 116°55'5 9.0
2019-Oct-16 11:27N 31°58' W 117°01'4 9.0
2019-Oct-16 11:00N 31°59' W 117°05'4 8.9
2019-Oct-16 10:30N 32°01' W 117°10'4 8.8
2019-Oct-16 10:00N 32°03' W 117°15'5 8.8
2019-Oct-16 09:29N 32°04' W 117°20'4 8.6
2019-Oct-16 09:00N 32°06' W 117°24'4 8.4
2019-Oct-16 08:30N 32°08' W 117°29'4 8.3
2019-Oct-16 08:00N 32°10' W 117°33'4 8.5
2019-Oct-16 07:30N 32°13' W 117°35'4 8.6
2019-Oct-16 07:00N 32°17' W 117°38'4 8.6
2019-Oct-16 06:30N 32°21' W 117°40'4 8.6
2019-Oct-16 06:00N 32°25' W 117°42'160.8
2019-Oct-16 06:00N 32°24' W 117°42'510.6 300 / 101018.210.8 21.018.019.0
2019-Oct-16 05:30N 32°29' W 117°45'4 8.1
2019-Oct-16 05:00N 32°32' W 117°47'5477.3
2019-Oct-16 05:00N 32°30' W 117°42'918.1 290 / 121018.310.8 21.018.019.0
2019-Oct-16 04:30N 32°36' W 117°49'510.6
2019-Oct-16 04:00N 32°41' W 117°52'510.8
2019-Oct-16 03:30N 32°46' W 117°55'510.7
2019-Oct-16 03:00N 32°51' W 117°58'510.5
2019-Oct-16 02:30N 32°55' W 118°00'510.8
2019-Oct-16 02:00N 33°00' W 118°03'510.6
2019-Oct-16 01:30N 33°05' W 118°06'510.4
2019-Oct-16 01:00N 33°09' W 118°09'510.4
2019-Oct-16 00:30N 33°14' W 118°13'5 9.8
2019-Oct-16 00:00N 33°18' W 118°15'4 7.7
2019-Oct-15 23:29N 33°21' W 118°19'0 0.1
2019-Oct-15 22:56N 33°21' W 118°19'0 0.0
2019-Oct-15 22:29N 33°21' W 118°19'0 0.1
2019-Oct-15 21:59N 33°21' W 118°19'0 0.1
2019-Oct-15 21:29N 33°21' W 118°19'0 0.1
2019-Oct-15 20:59N 33°21' W 118°19'0 0.0
2019-Oct-15 20:26N 33°21' W 118°19'0 0.0
2019-Oct-15 19:56N 33°21' W 118°19'0 0.0
2019-Oct-15 19:29N 33°21' W 118°19'0 0.0
2019-Oct-15 18:56N 33°21' W 118°19'0 0.1
2019-Oct-15 18:29N 33°21' W 118°19'0 0.0
2019-Oct-15 17:59N 33°21' W 118°19'0 0.1
2019-Oct-15 17:29N 33°21' W 118°19'0 0.1
2019-Oct-15 16:47N 33°21' W 118°19'0 0.2
2019-Oct-15 16:29N 33°21' W 118°19'0 0.0
2019-Oct-15 15:26N 33°21' W 118°19'0 0.0
2019-Oct-15 15:00N 33°21' W 118°19'0 0.1
2019-Oct-15 14:29N 33°21' W 118°19'0 0.1
2019-Oct-15 14:00N 33°21' W 118°19'3 6.2
2019-Oct-15 13:30N 33°19' W 118°17'4 8.5
2019-Oct-15 13:00N 33°15' W 118°15'4 8.6
2019-Oct-15 12:30N 33°10' W 118°14'4 8.6
2019-Oct-15 12:00N 33°06' W 118°13'152.8
2019-Oct-15 12:00N 33°06' W 118°12'3 7.1 310 / 91018.310.8 18.014.820.0
2019-Oct-15 11:30N 33°03' W 118°10'4 8.7
2019-Oct-15 11:00N 32°60' W 118°06'4 8.3
2019-Oct-15 10:30N 32°56' W 118°04'4 8.4
2019-Oct-15 10:00N 32°52' W 118°03'4 8.1
2019-Oct-15 09:30N 32°48' W 118°01'4 7.9
2019-Oct-15 09:00N 32°45' W 117°59'4 8.3
2019-Oct-15 08:30N 32°45' W 117°54'4 7.9
2019-Oct-15 08:00N 32°49' W 117°52'4 8.9
2019-Oct-15 07:30N 32°53' W 117°54'4 8.9
2019-Oct-15 07:00N 32°57' W 117°56'4 8.7
2019-Oct-15 06:30N 33°01' W 117°58'4 8.6
2019-Oct-15 06:00N 33°05' W 117°60'4 8.5
2019-Oct-15 05:30N 33°09' W 118°01'4 8.8
2019-Oct-15 05:00N 33°13' W 118°03'3194.1
2019-Oct-15 05:00N 33°12' W 118°00'714.1 330 / 101018.410.8 19.015.919.0
2019-Oct-15 04:30N 33°17' W 118°05'5 9.3
2019-Oct-15 04:00N 33°22' W 118°07'4239.0
2019-Oct-15 04:00N 33°18' W 118°06'817.4 310 / 131017.910.8 19.015.919.0
2019-Oct-15 03:30N 33°26' W 118°09'5 9.4
2019-Oct-15 03:00N 33°30' W 118°11'5 9.3
2019-Oct-15 02:30N 33°35' W 118°13'5 9.6
2019-Oct-15 02:00N 33°40' W 118°12'4 8.9
2019-Oct-15 01:30N 33°44' W 118°11'1 2.2
2019-Oct-15 00:58N 33°45' W 118°11'0 0.0
2019-Oct-15 00:28N 33°45' W 118°11'0 0.0
2019-Oct-14 23:58N 33°45' W 118°11'0 0.0
2019-Oct-14 23:28N 33°45' W 118°11'0 0.0
2019-Oct-14 22:58N 33°45' W 118°11'0 0.0
2019-Oct-14 22:25N 33°45' W 118°11'0 0.0
2019-Oct-14 21:58N 33°45' W 118°11'0 0.0
2019-Oct-14 21:28N 33°45' W 118°11'0 0.0
2019-Oct-14 20:58N 33°45' W 118°11'0 0.0
2019-Oct-14 20:28N 33°45' W 118°11'0 0.0
2019-Oct-14 19:58N 33°45' W 118°11'0 0.0
2019-Oct-14 19:25N 33°45' W 118°11'0 0.0
2019-Oct-14 18:58N 33°45' W 118°11'0 0.0
2019-Oct-14 18:28N 33°45' W 118°11'0 0.0
2019-Oct-14 17:58N 33°45' W 118°11'0 0.0
2019-Oct-14 17:28N 33°45' W 118°11'0 0.0
2019-Oct-14 16:58N 33°45' W 118°11'0 0.0
2019-Oct-14 16:28N 33°45' W 118°11'0 0.0
2019-Oct-14 15:55N 33°45' W 118°11'0 0.0
2019-Oct-14 15:28N 33°45' W 118°11'0 0.0
2019-Oct-14 14:58N 33°45' W 118°11'0 0.0
2019-Oct-14 14:25N 33°45' W 118°11'0 0.0
2019-Oct-14 13:55N 33°45' W 118°11'0 0.0
2019-Oct-14 13:28N 33°45' W 118°11'0 0.0
2019-Oct-14 12:58N 33°45' W 118°11'0 0.3
2019-Oct-14 12:31N 33°45' W 118°11'1 1.9
2019-Oct-14 12:00N 33°44' W 118°11'5 9.7
2019-Oct-14 11:30N 33°39' W 118°10'4 8.3
2019-Oct-14 10:59N 33°35' W 118°09'4 8.4
2019-Oct-14 10:30N 33°31' W 118°08'4 8.5
2019-Oct-14 10:00N 33°27' W 118°06'5 8.7
2019-Oct-14 09:24N 33°22' W 118°04'4 8.5
2019-Oct-14 08:58N 33°19' W 118°03'4 8.2
2019-Oct-14 08:30N 33°15' W 118°01'5 9.2
2019-Oct-14 08:00N 33°11' W 117°59'5 9.2
2019-Oct-14 07:31N 33°07' W 117°57'5 9.9
2019-Oct-14 07:00N 33°02' W 117°55'917.7
2019-Oct-14 06:30N 32°54' W 117°51'918.4
2019-Oct-14 06:00N 32°45' W 117°47'5321.3
2019-Oct-14 06:00N 32°42' W 117°42'510.9 270 / 51015.910.8 18.014.819.0
2019-Oct-14 05:30N 32°37' W 117°42'918.6
2019-Oct-14 05:01N 32°28' W 117°38'5274.0
2019-Oct-14 05:00N 32°24' W 117°36'5 9.9 330 / 51015.910.8 18.014.819.0
2019-Oct-14 04:30N 32°19' W 117°34'1631.1
2019-Oct-14 04:00N 32°06' W 117°24'571.3 300 / 81015.910.8 18.014.820.0
2019-Oct-14 03:55N 32°11' W 117°26'29 1.7
2019-Oct-13 11:03N 31°49' W 117°03'1 7.7
2019-Oct-13 10:53N 31°49' W 117°05'18 6.7
2019-Oct-13 08:16N 31°32' W 117°08'3 7.6
2019-Oct-13 07:52N 31°34' W 117°11'3 8.3
2019-Oct-13 07:30N 31°36' W 117°13'4 8.4
2019-Oct-13 07:00N 31°40' W 117°15'4 8.2
2019-Oct-13 06:30N 31°44' W 117°18'4 8.0
2019-Oct-13 06:00N 31°47' W 117°20'1403.7
2019-Oct-13 06:00N 31°48' W 117°18'4 8.3 340 / 51014.210.8 18.016.420.0
2019-Oct-13 05:30N 31°51' W 117°21'4 7.8
2019-Oct-13 05:00N 31°55' W 117°23'4290.8
2019-Oct-13 05:00N 31°54' W 117°18'715.4 290 / 51014.210.8 19.015.920.0
2019-Oct-13 04:30N 31°58' W 117°25'4 7.4
2019-Oct-13 04:00N 31°59' W 117°30'5 7.9
2019-Oct-13 03:24N 31°55' W 117°32'22 8.1
2019-Oct-13 00:42N 31°33' W 117°32'2 7.9
2019-Oct-13 00:27N 31°31' W 117°32'4 8.0
2019-Oct-13 00:00N 31°27' W 117°33'4 7.9
2019-Oct-12 23:30N 31°23' W 117°34'5 7.7
2019-Oct-12 22:54N 31°19' W 117°35'4 8.8
2019-Oct-12 22:24N 31°16' W 117°40'410.0
2019-Oct-12 21:59N 31°20' W 117°43'510.4
2019-Oct-12 21:29N 31°25' W 117°45'8 7.7
2019-Oct-12 20:28N 31°32' W 117°48'4 7.2
2019-Oct-12 19:52N 31°36' W 117°50'3 7.5
2019-Oct-12 19:29N 31°38' W 117°52'4 7.1
2019-Oct-12 18:56N 31°41' W 117°55'3 6.7
2019-Oct-12 18:30N 31°43' W 117°58'4 6.8
2019-Oct-12 17:58N 31°46' W 118°01'3 7.2
2019-Oct-12 17:29N 31°48' W 118°04'3 7.3
2019-Oct-12 17:00N 31°50' W 118°07'2163.5
2019-Oct-12 17:00N 31°48' W 118°06'612.2 250 / 121015.210.8 18.014.820.0
2019-Oct-12 16:30N 31°54' W 118°07'4 7.2
2019-Oct-12 16:00N 31°57' W 118°06'4 7.1
2019-Oct-12 15:30N 32°01' W 118°04'3 7.0
2019-Oct-12 15:00N 32°04' W 118°03'5301.7
2019-Oct-12 15:00N 32°00' W 118°00'714.5 260 / 101014.210.8 18.014.820.0
2019-Oct-12 14:30N 32°07' W 118°01'3 6.8
2019-Oct-12 14:00N 32°10' W 117°60'3 6.9
2019-Oct-12 13:30N 32°13' W 117°58'3 6.8
2019-Oct-12 13:00N 32°16' W 117°57'3 6.5
2019-Oct-12 12:30N 32°20' W 117°55'3 6.7
2019-Oct-12 12:00N 32°23' W 117°54'52425.5
2019-Oct-12 12:00N 32°18' W 117°54'816.4 010 / 51014.6 19.017.520.0
2019-Oct-12 11:30N 32°26' W 117°53'4 7.4
2019-Oct-12 11:00N 32°29' W 117°51'4 8.0
2019-Oct-12 10:30N 32°33' W 117°50'4 8.1
2019-Oct-12 10:00N 32°37' W 117°47'4 7.8
2019-Oct-12 09:30N 32°41' W 117°48'4 8.1
2019-Oct-12 09:00N 32°44' W 117°50'4 8.2
2019-Oct-12 08:30N 32°48' W 117°52'4 8.3
2019-Oct-12 08:00N 32°52' W 117°54'4 8.4
2019-Oct-12 07:30N 32°56' W 117°55'4 8.1
2019-Oct-12 07:00N 32°60' W 117°57'4 7.7
2019-Oct-12 06:30N 33°03' W 117°59'4 7.5
2019-Oct-12 06:00N 33°07' W 118°00'161.9
2019-Oct-12 06:00N 33°06' W 118°00'5 9.8 160 / 121016.210.8 20.016.920.0
2019-Oct-12 05:30N 33°10' W 118°02'4 8.0
2019-Oct-12 05:00N 33°14' W 118°04'4255.1
2019-Oct-12 05:00N 33°12' W 118°00'815.5 170 / 151016.210.8 20.016.920.0
2019-Oct-12 04:30N 33°18' W 118°05'4 8.3
2019-Oct-12 04:00N 33°22' W 118°07'4275.9
2019-Oct-12 04:00N 33°18' W 118°06'817.3 280 / 81015.210.8 21.018.020.0
2019-Oct-12 03:30N 33°26' W 118°09'4 8.8
2019-Oct-12 03:00N 33°30' W 118°11'5 9.0
2019-Oct-12 02:30N 33°34' W 118°13'5 9.6
2019-Oct-12 02:00N 33°39' W 118°12'5 9.3
2019-Oct-12 01:30N 33°44' W 118°11'1 2.7
2019-Oct-12 00:58N 33°45' W 118°11'0 0.0
2019-Oct-12 00:28N 33°45' W 118°11'0 0.0
2019-Oct-11 23:58N 33°45' W 118°11'0 0.0
2019-Oct-11 23:28N 33°45' W 118°11'0 0.0
2019-Oct-11 22:58N 33°45' W 118°11'0 0.0
2019-Oct-11 22:28N 33°45' W 118°11'0 0.0
2019-Oct-11 21:58N 33°45' W 118°11'0 0.0
2019-Oct-11 21:28N 33°45' W 118°11'0 0.0
2019-Oct-11 20:55N 33°45' W 118°11'0 0.0
2019-Oct-11 20:28N 33°45' W 118°11'0 0.0
2019-Oct-11 19:55N 33°45' W 118°11'0 0.0
2019-Oct-11 19:28N 33°45' W 118°11'0 0.0
2019-Oct-11 18:58N 33°45' W 118°11'0 0.0
2019-Oct-11 18:19N 33°45' W 118°11'0 0.0
2019-Oct-11 17:58N 33°45' W 118°11'0 0.0
2019-Oct-11 17:25N 33°45' W 118°11'0 0.0
2019-Oct-11 16:58N 33°45' W 118°11'0 0.0
2019-Oct-11 16:28N 33°45' W 118°11'0 0.0
2019-Oct-11 15:58N 33°45' W 118°11'0 0.0
2019-Oct-11 15:28N 33°45' W 118°11'0 0.0
2019-Oct-11 14:58N 33°45' W 118°11'0 0.0
2019-Oct-11 14:25N 33°45' W 118°11'0 0.0
2019-Oct-11 13:52N 33°45' W 118°11'0 0.0
2019-Oct-11 13:28N 33°45' W 118°11'0 0.0
2019-Oct-11 12:58N 33°45' W 118°11'0 0.3
2019-Oct-11 12:30N 33°45' W 118°11'1 3.0
2019-Oct-11 12:00N 33°43' W 118°11'5 9.0
2019-Oct-11 11:30N 33°39' W 118°10'3 6.8
2019-Oct-11 11:00N 33°36' W 118°10'4 7.4
2019-Oct-11 10:30N 33°32' W 118°09'4 7.4
2019-Oct-11 10:00N 33°29' W 118°07'4 7.4
2019-Oct-11 09:30N 33°25' W 118°06'4 7.5
2019-Oct-11 09:00N 33°22' W 118°04'4 7.4
2019-Oct-11 08:30N 33°18' W 118°02'4 7.3
2019-Oct-11 08:00N 33°15' W 118°01'4 7.6
2019-Oct-11 07:30N 33°11' W 117°60'4 7.5
2019-Oct-11 07:00N 33°08' W 117°58'4 7.5
2019-Oct-11 06:30N 33°04' W 117°56'4 8.1
2019-Oct-11 06:00N 33°00' W 117°55'149.6
2019-Oct-11 06:00N 33°00' W 117°54'4 7.4 010 / 51016.910.8 19.017.519.0
2019-Oct-11 05:30N 32°57' W 117°53'4 7.7
2019-Oct-11 05:00N 32°53' W 117°52'6356.3
2019-Oct-11 05:00N 32°48' W 117°48'2 3.1 330 / 51016.210.8 20.018.520.0
2019-Oct-11 04:30N 32°48' W 117°50'510.1
2019-Oct-11 04:00N 32°44' W 117°48'5 9.9
2019-Oct-11 03:30N 32°39' W 117°46'4 8.1
2019-Oct-11 03:00N 32°35' W 117°45'3 7.0
2019-Oct-11 02:30N 32°31' W 117°45'4 7.0
2019-Oct-11 02:00N 32°28' W 117°45'4 8.1
2019-Oct-11 01:30N 32°24' W 117°45'4 7.5
2019-Oct-11 01:00N 32°21' W 117°42'3173.6
2019-Oct-11 01:00N 32°18' W 117°42'3 6.5 280 / 71015.210.8 20.016.921.0
2019-Oct-11 00:30N 32°19' W 117°38'4 7.4
2019-Oct-11 00:00N 32°16' W 117°35'4 7.2
2019-Oct-10 23:30N 32°14' W 117°32'4 7.1
2019-Oct-10 23:00N 32°11' W 117°30'38 6.9
2019-Oct-10 17:30N 31°35' W 117°15'4 7.6
2019-Oct-10 17:00N 31°33' W 117°19'3312.2
2019-Oct-10 17:00N 31°30' W 117°18'5 9.4 290 / 121017.210.8 18.014.820.0
2019-Oct-10 16:30N 31°31' W 117°23'1 2.6
2019-Oct-10 16:00N 31°30' W 117°24'428.4 320 / 121015.210.8 20.018.520.0
2019-Oct-10 15:51N 31°30' W 117°29'5 7.4
2019-Oct-10 15:08N 31°29' W 117°35'2 7.0
2019-Oct-10 14:54N 31°28' W 117°37'4 7.0
2019-Oct-10 14:22N 31°28' W 117°41'3 7.1
2019-Oct-10 14:00N 31°28' W 117°44'4 6.9
2019-Oct-10 13:29N 31°29' W 117°48'5 9.9
2019-Oct-10 13:00N 31°24' W 117°48'7132.6 320 / 181015.210.8 18.014.819.0
2019-Oct-10 12:56N 31°30' W 117°52'3 7.0
2019-Oct-10 12:27N 31°31' W 117°56'3 7.2
2019-Oct-10 11:59N 31°31' W 118°00'4 7.5
2019-Oct-10 11:30N 31°32' W 118°04'4 7.2
2019-Oct-10 11:00N 31°32' W 118°08'4 7.0
2019-Oct-10 10:30N 31°28' W 118°09'4 7.3
2019-Oct-10 10:00N 31°26' W 118°05'4 7.5
2019-Oct-10 09:30N 31°24' W 118°02'4 7.5
2019-Oct-10 09:00N 31°22' W 117°58'4 7.1
2019-Oct-10 08:30N 31°22' W 117°54'6 7.6
2019-Oct-10 07:46N 31°25' W 117°47'8 8.7
2019-Oct-10 06:51N 31°28' W 117°39'410.0
2019-Oct-10 06:27N 31°29' W 117°35'919.6
2019-Oct-10 06:00N 31°30' W 117°24'579.3 330 / 171015.210.8 18.014.820.0
2019-Oct-10 05:56N 31°31' W 117°29'41 2.4
2019-Oct-09 12:59N 31°52' W 116°47'4 8.6
2019-Oct-09 12:30N 31°54' W 116°51'4 8.5
2019-Oct-09 12:00N 31°56' W 116°56'4 8.7
2019-Oct-09 11:30N 31°58' W 117°01'4 8.9
2019-Oct-09 11:00N 31°59' W 117°06'4 8.9
2019-Oct-09 10:30N 32°01' W 117°10'5 9.0
2019-Oct-09 10:00N 32°03' W 117°15'4 8.8
2019-Oct-09 09:30N 32°04' W 117°20'4 8.8
2019-Oct-09 09:00N 32°06' W 117°25'4 8.7
2019-Oct-09 08:30N 32°08' W 117°30'4 8.3
2019-Oct-09 08:00N 32°10' W 117°34'4 8.6
2019-Oct-09 07:30N 32°14' W 117°36'4 8.9
2019-Oct-09 07:00N 32°18' W 117°38'4 8.8
2019-Oct-09 06:30N 32°22' W 117°40'4 8.4
2019-Oct-09 06:00N 32°26' W 117°41'4 7.3
2019-Oct-09 05:30N 32°29' W 117°44'4 8.6
2019-Oct-09 05:00N 32°33' W 117°47'510.1
2019-Oct-09 04:30N 32°37' W 117°50'510.1
2019-Oct-09 04:00N 32°42' W 117°52'7423.8
2019-Oct-09 04:00N 32°36' W 117°48'1224.5 190 / 51014.810.8 17.013.720.0
2019-Oct-09 03:30N 32°46' W 117°55'510.2
2019-Oct-09 03:00N 32°51' W 117°58'510.2
2019-Oct-09 02:30N 32°55' W 118°00'510.2
2019-Oct-09 02:00N 32°60' W 118°03'611.1
2019-Oct-09 01:30N 33°05' W 118°06'611.4
2019-Oct-09 01:00N 33°10' W 118°09'611.6
2019-Oct-09 00:30N 33°15' W 118°13'611.5
2019-Oct-09 00:00N 33°20' W 118°17'2 4.0
2019-Oct-08 23:25N 33°21' W 118°19'0 0.1
2019-Oct-08 22:58N 33°21' W 118°19'0 0.0
2019-Oct-08 22:28N 33°21' W 118°19'0 0.0
2019-Oct-08 21:58N 33°21' W 118°19'0 0.1
2019-Oct-08 21:28N 33°21' W 118°19'0 0.1
2019-Oct-08 20:55N 33°21' W 118°19'0 0.1
2019-Oct-08 20:22N 33°21' W 118°19'0 0.0
2019-Oct-08 19:58N 33°21' W 118°19'0 0.0
2019-Oct-08 19:28N 33°21' W 118°19'0 0.0
2019-Oct-08 18:58N 33°21' W 118°19'0 0.0
2019-Oct-08 18:28N 33°21' W 118°19'0 0.0
2019-Oct-08 17:58N 33°21' W 118°19'0 0.1
2019-Oct-08 17:25N 33°21' W 118°19'0 0.0
2019-Oct-08 16:58N 33°21' W 118°19'0 0.0
2019-Oct-08 16:28N 33°21' W 118°19'0 0.1
2019-Oct-08 15:58N 33°21' W 118°19'0 0.0
2019-Oct-08 15:28N 33°21' W 118°19'0 0.0
2019-Oct-08 14:58N 33°21' W 118°19'0 0.0
2019-Oct-08 14:30N 33°21' W 118°19'0 0.1
2019-Oct-08 14:00N 33°21' W 118°19'3 6.2
2019-Oct-08 13:30N 33°19' W 118°17'4 8.3
2019-Oct-08 13:01N 33°15' W 118°15'4 8.5
2019-Oct-08 12:29N 33°10' W 118°14'4 8.6
2019-Oct-08 12:00N 33°06' W 118°13'4 8.3
2019-Oct-08 11:30N 33°03' W 118°10'5 9.4
2019-Oct-08 11:00N 32°60' W 118°06'4 8.8
2019-Oct-08 10:30N 32°56' W 118°04'4 8.7
2019-Oct-08 10:00N 32°51' W 118°02'4 9.0
2019-Oct-08 09:31N 32°47' W 118°01'4 8.4
2019-Oct-08 09:00N 32°45' W 117°57'4 8.4
2019-Oct-08 08:30N 32°46' W 117°52'4 8.8
2019-Oct-08 08:00N 32°51' W 117°53'4 9.0
2019-Oct-08 07:30N 32°55' W 117°56'4 8.7
2019-Oct-08 07:00N 32°59' W 117°58'4 9.0
2019-Oct-08 06:30N 33°03' W 117°59'4 8.9
2019-Oct-08 06:00N 33°07' W 118°01'4 8.0
2019-Oct-08 05:30N 33°11' W 118°02'4 7.1
2019-Oct-08 05:00N 33°14' W 118°04'4239.1
2019-Oct-08 05:00N 33°12' W 118°00'715.2 230 / 101015.210.8 20.016.920.0
2019-Oct-08 04:30N 33°18' W 118°05'4 8.9
2019-Oct-08 04:00N 33°22' W 118°07'5 9.3
2019-Oct-08 03:30N 33°26' W 118°09'5 9.4
2019-Oct-08 03:00N 33°31' W 118°11'5 9.6
2019-Oct-08 02:30N 33°35' W 118°13'5 9.3
2019-Oct-08 02:00N 33°40' W 118°12'4 8.7
2019-Oct-08 01:31N 33°44' W 118°11'1 1.9
2019-Oct-08 00:57N 33°45' W 118°11'0 0.0
2019-Oct-08 00:30N 33°45' W 118°11'0 0.0
2019-Oct-07 23:54N 33°45' W 118°11'0 0.0
2019-Oct-07 23:27N 33°45' W 118°11'0 0.0
2019-Oct-07 23:00N 33°45' W 118°11'0 0.0
2019-Oct-07 22:30N 33°45' W 118°11'0 0.0
2019-Oct-07 22:00N 33°45' W 118°11'0 0.0
2019-Oct-07 21:26N 33°45' W 118°11'0 0.0
2019-Oct-07 21:00N 33°45' W 118°11'0 0.0
2019-Oct-07 20:30N 33°45' W 118°11'0 0.0
2019-Oct-07 20:00N 33°45' W 118°11'0 0.0
2019-Oct-07 19:30N 33°45' W 118°11'0 0.0
2019-Oct-07 19:00N 33°45' W 118°11'0 0.0
2019-Oct-07 18:30N 33°45' W 118°11'0 0.0
2019-Oct-07 18:00N 33°45' W 118°11'0 0.0
2019-Oct-07 17:30N 33°45' W 118°11'0 0.0
2019-Oct-07 17:00N 33°45' W 118°11'0 0.0
2019-Oct-07 16:30N 33°45' W 118°11'0 0.0
2019-Oct-07 16:00N 33°45' W 118°11'0 0.0
2019-Oct-07 15:30N 33°45' W 118°11'0 0.0
2019-Oct-07 15:00N 33°45' W 118°11'0 0.0
2019-Oct-07 14:30N 33°45' W 118°11'0 0.0
2019-Oct-07 14:00N 33°45' W 118°11'0 0.0
2019-Oct-07 13:30N 33°45' W 118°11'0 0.0
2019-Oct-07 12:57N 33°45' W 118°11'0 0.2
2019-Oct-07 12:30N 33°45' W 118°11'1 2.3
2019-Oct-07 12:00N 33°44' W 118°11'510.0
2019-Oct-07 11:30N 33°39' W 118°10'4 8.3
2019-Oct-07 11:00N 33°35' W 118°09'4 8.8
2019-Oct-07 10:30N 33°31' W 118°08'5 9.0
2019-Oct-07 10:00N 33°26' W 118°06'4 9.0
2019-Oct-07 09:30N 33°22' W 118°04'4 8.8
2019-Oct-07 09:00N 33°18' W 118°02'4 8.3
2019-Oct-07 08:30N 33°14' W 118°00'4 8.8
2019-Oct-07 08:00N 33°10' W 117°58'4 8.9
2019-Oct-07 07:30N 33°06' W 117°56'510.1
2019-Oct-07 07:00N 33°01' W 117°54'919.0
2019-Oct-07 06:30N 32°52' W 117°50'918.9
2019-Oct-07 06:00N 32°44' W 117°46'4222.2
2019-Oct-07 06:00N 32°42' W 117°42'714.6 340 / 121019.210.8 20.016.919.0
2019-Oct-07 05:30N 32°35' W 117°42'918.7
2019-Oct-07 05:00N 32°26' W 117°38'3161.3
2019-Oct-07 05:00N 32°24' W 117°36'713.8 340 / 151019.210.8 20.016.919.0
2019-Oct-07 04:30N 32°18' W 117°33'918.4
2019-Oct-07 04:00N 32°11' W 117°27'918.7
2019-Oct-07 03:31N 32°05' W 117°17'918.4
2019-Oct-07 03:01N 32°00' W 117°08'9565.1
2019-Oct-07 03:00N 31°54' W 117°00'21 1.8 320 / 131018.6 20.018.521.0
2019-Oct-06 15:00N 31°48' W 116°36'   040 / 21019.3 20.016.921.0
Track history (hours):
 
Tides and Currents Weather Stations Pressure Air Temp Water Temp Dewpoint Dewpoint Depression Visibility Wind Speed Wind Dir Waves Ship Positions

Inspiration

Operator: Carnival Cruise Lines

Last reported at 2019-Oct-16 12:52 UTC. Time now 2019-Oct-16 19:32 UTC.
Position N 31°53' W 116°48'.

Type: Ship. MMSI: 309484000.

Date/timePositionNaut miles runAvg speedWind from/ knotsBaromVisibWave heightAir tempDewpointWater temp
2019-Oct-16 12:52N 31°53' W 116°48'3 8.3
2019-Oct-16 12:30N 31°54' W 116°51'4 7.9
2019-Oct-16 11:59N 31°56' W 116°55'5 9.0
2019-Oct-16 11:27N 31°58' W 117°01'4 9.0
2019-Oct-16 11:00N 31°59' W 117°05'4 8.9
2019-Oct-16 10:30N 32°01' W 117°10'4 8.8
2019-Oct-16 10:00N 32°03' W 117°15'5 8.8
2019-Oct-16 09:29N 32°04' W 117°20'4 8.6
2019-Oct-16 09:00N 32°06' W 117°24'4 8.4
2019-Oct-16 08:30N 32°08' W 117°29'4 8.3
2019-Oct-16 08:00N 32°10' W 117°33'4 8.5
2019-Oct-16 07:30N 32°13' W 117°35'4 8.6
2019-Oct-16 07:00N 32°17' W 117°38'4 8.6
2019-Oct-16 06:30N 32°21' W 117°40'4 8.6
2019-Oct-16 06:00N 32°25' W 117°42'160.8
2019-Oct-16 06:00N 32°24' W 117°42'510.6 300 / 101018.210.8 21.018.019.0
2019-Oct-16 05:30N 32°29' W 117°45'4 8.1
2019-Oct-16 05:00N 32°32' W 117°47'5477.3
2019-Oct-16 05:00N 32°30' W 117°42'918.1 290 / 121018.310.8 21.018.019.0
2019-Oct-16 04:30N 32°36' W 117°49'510.6
2019-Oct-16 04:00N 32°41' W 117°52'510.8
2019-Oct-16 03:30N 32°46' W 117°55'510.7
2019-Oct-16 03:00N 32°51' W 117°58'510.5
2019-Oct-16 02:30N 32°55' W 118°00'510.8
2019-Oct-16 02:00N 33°00' W 118°03'510.6
2019-Oct-16 01:30N 33°05' W 118°06'510.4
2019-Oct-16 01:00N 33°09' W 118°09'510.4
2019-Oct-16 00:30N 33°14' W 118°13'5 9.8
2019-Oct-16 00:00N 33°18' W 118°15'4 7.7
2019-Oct-15 23:29N 33°21' W 118°19'0 0.1
2019-Oct-15 22:56N 33°21' W 118°19'0 0.0
2019-Oct-15 22:29N 33°21' W 118°19'0 0.1
2019-Oct-15 21:59N 33°21' W 118°19'0 0.1
2019-Oct-15 21:29N 33°21' W 118°19'0 0.1
2019-Oct-15 20:59N 33°21' W 118°19'0 0.0
2019-Oct-15 20:26N 33°21' W 118°19'0 0.0
2019-Oct-15 19:56N 33°21' W 118°19'0 0.0
2019-Oct-15 19:29N 33°21' W 118°19'0 0.0
2019-Oct-15 18:56N 33°21' W 118°19'0 0.1
2019-Oct-15 18:29N 33°21' W 118°19'0 0.0
2019-Oct-15 17:59N 33°21' W 118°19'0 0.1
2019-Oct-15 17:29N 33°21' W 118°19'0 0.1
2019-Oct-15 16:47N 33°21' W 118°19'0 0.2
2019-Oct-15 16:29N 33°21' W 118°19'0 0.0
2019-Oct-15 15:26N 33°21' W 118°19'0 0.0
2019-Oct-15 15:00N 33°21' W 118°19'0 0.1
2019-Oct-15 14:29N 33°21' W 118°19'0 0.1
2019-Oct-15 14:00N 33°21' W 118°19'3 6.2
2019-Oct-15 13:30N 33°19' W 118°17'4 8.5
2019-Oct-15 13:00N 33°15' W 118°15'4 8.6
2019-Oct-15 12:30N 33°10' W 118°14'4 8.6
2019-Oct-15 12:00N 33°06' W 118°13'152.8
2019-Oct-15 12:00N 33°06' W 118°12'3 7.1 310 / 91018.310.8 18.014.820.0
2019-Oct-15 11:30N 33°03' W 118°10'4 8.7
2019-Oct-15 11:00N 32°60' W 118°06'4 8.3
2019-Oct-15 10:30N 32°56' W 118°04'4 8.4
2019-Oct-15 10:00N 32°52' W 118°03'4 8.1
2019-Oct-15 09:30N 32°48' W 118°01'4 7.9
2019-Oct-15 09:00N 32°45' W 117°59'4 8.3
2019-Oct-15 08:30N 32°45' W 117°54'4 7.9
2019-Oct-15 08:00N 32°49' W 117°52'4 8.9
2019-Oct-15 07:30N 32°53' W 117°54'4 8.9
2019-Oct-15 07:00N 32°57' W 117°56'4 8.7
2019-Oct-15 06:30N 33°01' W 117°58'4 8.6
2019-Oct-15 06:00N 33°05' W 117°60'4 8.5
2019-Oct-15 05:30N 33°09' W 118°01'4 8.8
2019-Oct-15 05:00N 33°13' W 118°03'3194.1
2019-Oct-15 05:00N 33°12' W 118°00'714.1 330 / 101018.410.8 19.015.919.0
2019-Oct-15 04:30N 33°17' W 118°05'5 9.3
2019-Oct-15 04:00N 33°22' W 118°07'4239.0
2019-Oct-15 04:00N 33°18' W 118°06'817.4 310 / 131017.910.8 19.015.919.0
2019-Oct-15 03:30N 33°26' W 118°09'5 9.4
2019-Oct-15 03:00N 33°30' W 118°11'5 9.3
2019-Oct-15 02:30N 33°35' W 118°13'5 9.6
2019-Oct-15 02:00N 33°40' W 118°12'4 8.9
2019-Oct-15 01:30N 33°44' W 118°11'1 2.2
2019-Oct-15 00:58N 33°45' W 118°11'0 0.0
2019-Oct-15 00:28N 33°45' W 118°11'0 0.0
2019-Oct-14 23:58N 33°45' W 118°11'0 0.0
2019-Oct-14 23:28N 33°45' W 118°11'0 0.0
2019-Oct-14 22:58N 33°45' W 118°11'0 0.0
2019-Oct-14 22:25N 33°45' W 118°11'0 0.0
2019-Oct-14 21:58N 33°45' W 118°11'0 0.0
2019-Oct-14 21:28N 33°45' W 118°11'0 0.0
2019-Oct-14 20:58N 33°45' W 118°11'0 0.0
2019-Oct-14 20:28N 33°45' W 118°11'0 0.0
2019-Oct-14 19:58N 33°45' W 118°11'0 0.0
2019-Oct-14 19:25N 33°45' W 118°11'0 0.0
2019-Oct-14 18:58N 33°45' W 118°11'0 0.0
2019-Oct-14 18:28N 33°45' W 118°11'0 0.0
2019-Oct-14 17:58N 33°45' W 118°11'0 0.0
2019-Oct-14 17:28N 33°45' W 118°11'0 0.0
2019-Oct-14 16:58N 33°45' W 118°11'0 0.0
2019-Oct-14 16:28N 33°45' W 118°11'0 0.0
2019-Oct-14 15:55N 33°45' W 118°11'0 0.0
2019-Oct-14 15:28N 33°45' W 118°11'0 0.0
2019-Oct-14 14:58N 33°45' W 118°11'0 0.0
2019-Oct-14 14:25N 33°45' W 118°11'0 0.0
2019-Oct-14 13:55N 33°45' W 118°11'0 0.0
2019-Oct-14 13:28N 33°45' W 118°11'0 0.0
2019-Oct-14 12:58N 33°45' W 118°11'0 0.3
2019-Oct-14 12:31N 33°45' W 118°11'1 1.9
2019-Oct-14 12:00N 33°44' W 118°11'5 9.7
2019-Oct-14 11:30N 33°39' W 118°10'4 8.3
2019-Oct-14 10:59N 33°35' W 118°09'4 8.4
2019-Oct-14 10:30N 33°31' W 118°08'4 8.5
2019-Oct-14 10:00N 33°27' W 118°06'5 8.7
2019-Oct-14 09:24N 33°22' W 118°04'4 8.5
2019-Oct-14 08:58N 33°19' W 118°03'4 8.2
2019-Oct-14 08:30N 33°15' W 118°01'5 9.2
2019-Oct-14 08:00N 33°11' W 117°59'5 9.2
2019-Oct-14 07:31N 33°07' W 117°57'5 9.9
2019-Oct-14 07:00N 33°02' W 117°55'917.7
2019-Oct-14 06:30N 32°54' W 117°51'918.4
2019-Oct-14 06:00N 32°45' W 117°47'5321.3
2019-Oct-14 06:00N 32°42' W 117°42'510.9 270 / 51015.910.8 18.014.819.0
2019-Oct-14 05:30N 32°37' W 117°42'918.6
2019-Oct-14 05:01N 32°28' W 117°38'5274.0
2019-Oct-14 05:00N 32°24' W 117°36'5 9.9 330 / 51015.910.8 18.014.819.0
2019-Oct-14 04:30N 32°19' W 117°34'1631.1
2019-Oct-14 04:00N 32°06' W 117°24'571.3 300 / 81015.910.8 18.014.820.0
2019-Oct-14 03:55N 32°11' W 117°26'29 1.7
2019-Oct-13 11:03N 31°49' W 117°03'1 7.7
2019-Oct-13 10:53N 31°49' W 117°05'18 6.7
2019-Oct-13 08:16N 31°32' W 117°08'3 7.6
2019-Oct-13 07:52N 31°34' W 117°11'3 8.3
2019-Oct-13 07:30N 31°36' W 117°13'4 8.4
2019-Oct-13 07:00N 31°40' W 117°15'4 8.2
2019-Oct-13 06:30N 31°44' W 117°18'4 8.0
2019-Oct-13 06:00N 31°47' W 117°20'1403.7
2019-Oct-13 06:00N 31°48' W 117°18'4 8.3 340 / 51014.210.8 18.016.420.0
2019-Oct-13 05:30N 31°51' W 117°21'4 7.8
2019-Oct-13 05:00N 31°55' W 117°23'4290.8
2019-Oct-13 05:00N 31°54' W 117°18'715.4 290 / 51014.210.8 19.015.920.0
2019-Oct-13 04:30N 31°58' W 117°25'4 7.4
2019-Oct-13 04:00N 31°59' W 117°30'5 7.9
2019-Oct-13 03:24N 31°55' W 117°32'22 8.1
2019-Oct-13 00:42N 31°33' W 117°32'2 7.9
2019-Oct-13 00:27N 31°31' W 117°32'4 8.0
2019-Oct-13 00:00N 31°27' W 117°33'4 7.9
2019-Oct-12 23:30N 31°23' W 117°34'5 7.7
2019-Oct-12 22:54N 31°19' W 117°35'4 8.8
2019-Oct-12 22:24N 31°16' W 117°40'410.0
2019-Oct-12 21:59N 31°20' W 117°43'510.4
2019-Oct-12 21:29N 31°25' W 117°45'8 7.7
2019-Oct-12 20:28N 31°32' W 117°48'4 7.2
2019-Oct-12 19:52N 31°36' W 117°50'3 7.5
2019-Oct-12 19:29N 31°38' W 117°52'4 7.1
2019-Oct-12 18:56N 31°41' W 117°55'3 6.7
2019-Oct-12 18:30N 31°43' W 117°58'4 6.8
2019-Oct-12 17:58N 31°46' W 118°01'3 7.2
2019-Oct-12 17:29N 31°48' W 118°04'3 7.3
2019-Oct-12 17:00N 31°50' W 118°07'2163.5
2019-Oct-12 17:00N 31°48' W 118°06'612.2 250 / 121015.210.8 18.014.820.0
2019-Oct-12 16:30N 31°54' W 118°07'4 7.2
2019-Oct-12 16:00N 31°57' W 118°06'4 7.1
2019-Oct-12 15:30N 32°01' W 118°04'3 7.0
2019-Oct-12 15:00N 32°04' W 118°03'5301.7
2019-Oct-12 15:00N 32°00' W 118°00'714.5 260 / 101014.210.8 18.014.820.0
2019-Oct-12 14:30N 32°07' W 118°01'3 6.8
2019-Oct-12 14:00N 32°10' W 117°60'3 6.9
2019-Oct-12 13:30N 32°13' W 117°58'3 6.8
2019-Oct-12 13:00N 32°16' W 117°57'3 6.5
2019-Oct-12 12:30N 32°20' W 117°55'3 6.7
2019-Oct-12 12:00N 32°23' W 117°54'52425.5
2019-Oct-12 12:00N 32°18' W 117°54'816.4 010 / 51014.6 19.017.520.0
2019-Oct-12 11:30N 32°26' W 117°53'4 7.4
2019-Oct-12 11:00N 32°29' W 117°51'4 8.0
2019-Oct-12 10:30N 32°33' W 117°50'4 8.1
2019-Oct-12 10:00N 32°37' W 117°47'4 7.8
2019-Oct-12 09:30N 32°41' W 117°48'4 8.1
2019-Oct-12 09:00N 32°44' W 117°50'4 8.2
2019-Oct-12 08:30N 32°48' W 117°52'4 8.3
2019-Oct-12 08:00N 32°52' W 117°54'4 8.4
2019-Oct-12 07:30N 32°56' W 117°55'4 8.1
2019-Oct-12 07:00N 32°60' W 117°57'4 7.7
2019-Oct-12 06:30N 33°03' W 117°59'4 7.5
2019-Oct-12 06:00N 33°07' W 118°00'161.9
2019-Oct-12 06:00N 33°06' W 118°00'5 9.8 160 / 121016.210.8 20.016.920.0
2019-Oct-12 05:30N 33°10' W 118°02'4 8.0
2019-Oct-12 05:00N 33°14' W 118°04'4255.1
2019-Oct-12 05:00N 33°12' W 118°00'815.5 170 / 151016.210.8 20.016.920.0
2019-Oct-12 04:30N 33°18' W 118°05'4 8.3
2019-Oct-12 04:00N 33°22' W 118°07'4275.9
2019-Oct-12 04:00N 33°18' W 118°06'817.3 280 / 81015.210.8 21.018.020.0
2019-Oct-12 03:30N 33°26' W 118°09'4 8.8
2019-Oct-12 03:00N 33°30' W 118°11'5 9.0
2019-Oct-12 02:30N 33°34' W 118°13'5 9.6
2019-Oct-12 02:00N 33°39' W 118°12'5 9.3
2019-Oct-12 01:30N 33°44' W 118°11'1 2.7
2019-Oct-12 00:58N 33°45' W 118°11'0 0.0
2019-Oct-12 00:28N 33°45' W 118°11'0 0.0
2019-Oct-11 23:58N 33°45' W 118°11'0 0.0
2019-Oct-11 23:28N 33°45' W 118°11'0 0.0
2019-Oct-11 22:58N 33°45' W 118°11'0 0.0
2019-Oct-11 22:28N 33°45' W 118°11'0 0.0
2019-Oct-11 21:58N 33°45' W 118°11'0 0.0
2019-Oct-11 21:28N 33°45' W 118°11'0 0.0
2019-Oct-11 20:55N 33°45' W 118°11'0 0.0
2019-Oct-11 20:28N 33°45' W 118°11'0 0.0
2019-Oct-11 19:55N 33°45' W 118°11'0 0.0
2019-Oct-11 19:28N 33°45' W 118°11'0 0.0
2019-Oct-11 18:58N 33°45' W 118°11'0 0.0
2019-Oct-11 18:19N 33°45' W 118°11'0 0.0
2019-Oct-11 17:58N 33°45' W 118°11'0 0.0
2019-Oct-11 17:25N 33°45' W 118°11'0 0.0
2019-Oct-11 16:58N 33°45' W 118°11'0 0.0
2019-Oct-11 16:28N 33°45' W 118°11'0 0.0
2019-Oct-11 15:58N 33°45' W 118°11'0 0.0
2019-Oct-11 15:28N 33°45' W 118°11'0 0.0
2019-Oct-11 14:58N 33°45' W 118°11'0 0.0
2019-Oct-11 14:25N 33°45' W 118°11'0 0.0
2019-Oct-11 13:52N 33°45' W 118°11'0 0.0
2019-Oct-11 13:28N 33°45' W 118°11'0 0.0
2019-Oct-11 12:58N 33°45' W 118°11'0 0.3
2019-Oct-11 12:30N 33°45' W 118°11'1 3.0
2019-Oct-11 12:00N 33°43' W 118°11'5 9.0
2019-Oct-11 11:30N 33°39' W 118°10'3 6.8
2019-Oct-11 11:00N 33°36' W 118°10'4 7.4
2019-Oct-11 10:30N 33°32' W 118°09'4 7.4
2019-Oct-11 10:00N 33°29' W 118°07'4 7.4
2019-Oct-11 09:30N 33°25' W 118°06'4 7.5
2019-Oct-11 09:00N 33°22' W 118°04'4 7.4
2019-Oct-11 08:30N 33°18' W 118°02'4 7.3
2019-Oct-11 08:00N 33°15' W 118°01'4 7.6
2019-Oct-11 07:30N 33°11' W 117°60'4 7.5
2019-Oct-11 07:00N 33°08' W 117°58'4 7.5
2019-Oct-11 06:30N 33°04' W 117°56'4 8.1
2019-Oct-11 06:00N 33°00' W 117°55'149.6
2019-Oct-11 06:00N 33°00' W 117°54'4 7.4 010 / 51016.910.8 19.017.519.0
2019-Oct-11 05:30N 32°57' W 117°53'4 7.7
2019-Oct-11 05:00N 32°53' W 117°52'6356.3
2019-Oct-11 05:00N 32°48' W 117°48'2 3.1 330 / 51016.210.8 20.018.520.0
2019-Oct-11 04:30N 32°48' W 117°50'510.1
2019-Oct-11 04:00N 32°44' W 117°48'5 9.9
2019-Oct-11 03:30N 32°39' W 117°46'4 8.1
2019-Oct-11 03:00N 32°35' W 117°45'3 7.0
2019-Oct-11 02:30N 32°31' W 117°45'4 7.0
2019-Oct-11 02:00N 32°28' W 117°45'4 8.1
2019-Oct-11 01:30N 32°24' W 117°45'4 7.5
2019-Oct-11 01:00N 32°21' W 117°42'3173.6
2019-Oct-11 01:00N 32°18' W 117°42'3 6.5 280 / 71015.210.8 20.016.921.0
2019-Oct-11 00:30N 32°19' W 117°38'4 7.4
2019-Oct-11 00:00N 32°16' W 117°35'4 7.2
2019-Oct-10 23:30N 32°14' W 117°32'4 7.1
2019-Oct-10 23:00N 32°11' W 117°30'38 6.9
2019-Oct-10 17:30N 31°35' W 117°15'4 7.6
2019-Oct-10 17:00N 31°33' W 117°19'3312.2
2019-Oct-10 17:00N 31°30' W 117°18'5 9.4 290 / 121017.210.8 18.014.820.0
2019-Oct-10 16:30N 31°31' W 117°23'1 2.6
2019-Oct-10 16:00N 31°30' W 117°24'428.4 320 / 121015.210.8 20.018.520.0
2019-Oct-10 15:51N 31°30' W 117°29'5 7.4
2019-Oct-10 15:08N 31°29' W 117°35'2 7.0
2019-Oct-10 14:54N 31°28' W 117°37'4 7.0
2019-Oct-10 14:22N 31°28' W 117°41'3 7.1
2019-Oct-10 14:00N 31°28' W 117°44'4 6.9
2019-Oct-10 13:29N 31°29' W 117°48'5 9.9
2019-Oct-10 13:00N 31°24' W 117°48'7132.6 320 / 181015.210.8 18.014.819.0
2019-Oct-10 12:56N 31°30' W 117°52'3 7.0
2019-Oct-10 12:27N 31°31' W 117°56'3 7.2
2019-Oct-10 11:59N 31°31' W 118°00'4 7.5
2019-Oct-10 11:30N 31°32' W 118°04'4 7.2
2019-Oct-10 11:00N 31°32' W 118°08'4 7.0
2019-Oct-10 10:30N 31°28' W 118°09'4 7.3
2019-Oct-10 10:00N 31°26' W 118°05'4 7.5
2019-Oct-10 09:30N 31°24' W 118°02'4 7.5
2019-Oct-10 09:00N 31°22' W 117°58'4 7.1
2019-Oct-10 08:30N 31°22' W 117°54'6 7.6
2019-Oct-10 07:46N 31°25' W 117°47'8 8.7
2019-Oct-10 06:51N 31°28' W 117°39'410.0
2019-Oct-10 06:27N 31°29' W 117°35'919.6
2019-Oct-10 06:00N 31°30' W 117°24'579.3 330 / 171015.210.8 18.014.820.0
2019-Oct-10 05:56N 31°31' W 117°29'41 2.4
2019-Oct-09 12:59N 31°52' W 116°47'4 8.6
2019-Oct-09 12:30N 31°54' W 116°51'4 8.5
2019-Oct-09 12:00N 31°56' W 116°56'4 8.7
2019-Oct-09 11:30N 31°58' W 117°01'4 8.9
2019-Oct-09 11:00N 31°59' W 117°06'4 8.9
2019-Oct-09 10:30N 32°01' W 117°10'5 9.0
2019-Oct-09 10:00N 32°03' W 117°15'4 8.8
2019-Oct-09 09:30N 32°04' W 117°20'4 8.8
2019-Oct-09 09:00N 32°06' W 117°25'4 8.7
2019-Oct-09 08:30N 32°08' W 117°30'4 8.3
2019-Oct-09 08:00N 32°10' W 117°34'4 8.6
2019-Oct-09 07:30N 32°14' W 117°36'4 8.9
2019-Oct-09 07:00N 32°18' W 117°38'4 8.8
2019-Oct-09 06:30N 32°22' W 117°40'4 8.4
2019-Oct-09 06:00N 32°26' W 117°41'4 7.3
2019-Oct-09 05:30N 32°29' W 117°44'4 8.6
2019-Oct-09 05:00N 32°33' W 117°47'510.1
2019-Oct-09 04:30N 32°37' W 117°50'510.1
2019-Oct-09 04:00N 32°42' W 117°52'7423.8
2019-Oct-09 04:00N 32°36' W 117°48'1224.5 190 / 51014.810.8 17.013.720.0
2019-Oct-09 03:30N 32°46' W 117°55'510.2
2019-Oct-09 03:00N 32°51' W 117°58'510.2
2019-Oct-09 02:30N 32°55' W 118°00'510.2
2019-Oct-09 02:00N 32°60' W 118°03'611.1
2019-Oct-09 01:30N 33°05' W 118°06'611.4
2019-Oct-09 01:00N 33°10' W 118°09'611.6
2019-Oct-09 00:30N 33°15' W 118°13'611.5
2019-Oct-09 00:00N 33°20' W 118°17'2 4.0
2019-Oct-08 23:25N 33°21' W 118°19'0 0.1
2019-Oct-08 22:58N 33°21' W 118°19'0 0.0
2019-Oct-08 22:28N 33°21' W 118°19'0 0.0
2019-Oct-08 21:58N 33°21' W 118°19'0 0.1
2019-Oct-08 21:28N 33°21' W 118°19'0 0.1
2019-Oct-08 20:55N 33°21' W 118°19'0 0.1
2019-Oct-08 20:22N 33°21' W 118°19'0 0.0
2019-Oct-08 19:58N 33°21' W 118°19'0 0.0
2019-Oct-08 19:28N 33°21' W 118°19'0 0.0
2019-Oct-08 18:58N 33°21' W 118°19'0 0.0
2019-Oct-08 18:28N 33°21' W 118°19'0 0.0
2019-Oct-08 17:58N 33°21' W 118°19'0 0.1
2019-Oct-08 17:25N 33°21' W 118°19'0 0.0
2019-Oct-08 16:58N 33°21' W 118°19'0 0.0
2019-Oct-08 16:28N 33°21' W 118°19'0 0.1
2019-Oct-08 15:58N 33°21' W 118°19'0 0.0
2019-Oct-08 15:28N 33°21' W 118°19'0 0.0
2019-Oct-08 14:58N 33°21' W 118°19'0 0.0
2019-Oct-08 14:30N 33°21' W 118°19'0 0.1
2019-Oct-08 14:00N 33°21' W 118°19'3 6.2
2019-Oct-08 13:30N 33°19' W 118°17'4 8.3
2019-Oct-08 13:01N 33°15' W 118°15'4 8.5
2019-Oct-08 12:29N 33°10' W 118°14'4 8.6
2019-Oct-08 12:00N 33°06' W 118°13'4 8.3
2019-Oct-08 11:30N 33°03' W 118°10'5 9.4
2019-Oct-08 11:00N 32°60' W 118°06'4 8.8
2019-Oct-08 10:30N 32°56' W 118°04'4 8.7
2019-Oct-08 10:00N 32°51' W 118°02'4 9.0
2019-Oct-08 09:31N 32°47' W 118°01'4 8.4
2019-Oct-08 09:00N 32°45' W 117°57'4 8.4
2019-Oct-08 08:30N 32°46' W 117°52'4 8.8
2019-Oct-08 08:00N 32°51' W 117°53'4 9.0
2019-Oct-08 07:30N 32°55' W 117°56'4 8.7
2019-Oct-08 07:00N 32°59' W 117°58'4 9.0
2019-Oct-08 06:30N 33°03' W 117°59'4 8.9
2019-Oct-08 06:00N 33°07' W 118°01'4 8.0
2019-Oct-08 05:30N 33°11' W 118°02'4 7.1
2019-Oct-08 05:00N 33°14' W 118°04'4239.1
2019-Oct-08 05:00N 33°12' W 118°00'715.2 230 / 101015.210.8 20.016.920.0
2019-Oct-08 04:30N 33°18' W 118°05'4 8.9
2019-Oct-08 04:00N 33°22' W 118°07'5 9.3
2019-Oct-08 03:30N 33°26' W 118°09'5 9.4
2019-Oct-08 03:00N 33°31' W 118°11'5 9.6
2019-Oct-08 02:30N 33°35' W 118°13'5 9.3
2019-Oct-08 02:00N 33°40' W 118°12'4 8.7
2019-Oct-08 01:31N 33°44' W 118°11'1 1.9
2019-Oct-08 00:57N 33°45' W 118°11'0 0.0
2019-Oct-08 00:30N 33°45' W 118°11'0 0.0
2019-Oct-07 23:54N 33°45' W 118°11'0 0.0
2019-Oct-07 23:27N 33°45' W 118°11'0 0.0
2019-Oct-07 23:00N 33°45' W 118°11'0 0.0
2019-Oct-07 22:30N 33°45' W 118°11'0 0.0
2019-Oct-07 22:00N 33°45' W 118°11'0 0.0
2019-Oct-07 21:26N 33°45' W 118°11'0 0.0
2019-Oct-07 21:00N 33°45' W 118°11'0 0.0
2019-Oct-07 20:30N 33°45' W 118°11'0 0.0
2019-Oct-07 20:00N 33°45' W 118°11'0 0.0
2019-Oct-07 19:30N 33°45' W 118°11'0 0.0
2019-Oct-07 19:00N 33°45' W 118°11'0 0.0
2019-Oct-07 18:30N 33°45' W 118°11'0 0.0
2019-Oct-07 18:00N 33°45' W 118°11'0 0.0
2019-Oct-07 17:30N 33°45' W 118°11'0 0.0
2019-Oct-07 17:00N 33°45' W 118°11'0 0.0
2019-Oct-07 16:30N 33°45' W 118°11'0 0.0
2019-Oct-07 16:00N 33°45' W 118°11'0 0.0
2019-Oct-07 15:30N 33°45' W 118°11'0 0.0
2019-Oct-07 15:00N 33°45' W 118°11'0 0.0
2019-Oct-07 14:30N 33°45' W 118°11'0 0.0
2019-Oct-07 14:00N 33°45' W 118°11'0 0.0
2019-Oct-07 13:30N 33°45' W 118°11'0 0.0
2019-Oct-07 12:57N 33°45' W 118°11'0 0.2
2019-Oct-07 12:30N 33°45' W 118°11'1 2.3
2019-Oct-07 12:00N 33°44' W 118°11'510.0
2019-Oct-07 11:30N 33°39' W 118°10'4 8.3
2019-Oct-07 11:00N 33°35' W 118°09'4 8.8
2019-Oct-07 10:30N 33°31' W 118°08'5 9.0
2019-Oct-07 10:00N 33°26' W 118°06'4 9.0
2019-Oct-07 09:30N 33°22' W 118°04'4 8.8
2019-Oct-07 09:00N 33°18' W 118°02'4 8.3
2019-Oct-07 08:30N 33°14' W 118°00'4 8.8
2019-Oct-07 08:00N 33°10' W 117°58'4 8.9
2019-Oct-07 07:30N 33°06' W 117°56'510.1
2019-Oct-07 07:00N 33°01' W 117°54'919.0
2019-Oct-07 06:30N 32°52' W 117°50'918.9
2019-Oct-07 06:00N 32°44' W 117°46'4222.2
2019-Oct-07 06:00N 32°42' W 117°42'714.6 340 / 121019.210.8 20.016.919.0
2019-Oct-07 05:30N 32°35' W 117°42'918.7
2019-Oct-07 05:00N 32°26' W 117°38'3161.3
2019-Oct-07 05:00N 32°24' W 117°36'713.8 340 / 151019.210.8 20.016.919.0
2019-Oct-07 04:30N 32°18' W 117°33'918.4
2019-Oct-07 04:00N 32°11' W 117°27'918.7
2019-Oct-07 03:31N 32°05' W 117°17'918.4
2019-Oct-07 03:01N 32°00' W 117°08'9565.1
2019-Oct-07 03:00N 31°54' W 117°00'21 1.8 320 / 131018.6 20.018.521.0
2019-Oct-06 15:00N 31°48' W 116°36'   040 / 21019.3 20.016.921.0

Dump ship's entire track history